Oudtshoorn, South Africa

1:46 AM SAST on September 17, 2014 (GMT +0200)
George | Change Station
CLOSE
Current Station
Airport
Location: George,
Elevation: 633 ft
Nearby Weather Stations

Elev 633 ft 34.01 °S, 22.38 °E | Updated 46 minutes ago

Overcast
Overcast
61 °F
Feels Like 61 °F
N
9
Wind Variable Wind from ENE

Today
High -- | Low -- °F
--% Chance of Precip.
Yesterday
High -- | Low -- °F
Precip. -- in
6:27 AM 6:24 PM
Last Quarter, 41% visible
Pressure 29.92 in
Visibility 5.6 miles
Clouds Few 1000 ft
Overcast 1300 ft
Dew Point 61 °F
Humidity 100%
Rainfall 0.00 in
Snow Depth Not available.
UV 0 out of 12
Pollen Not available.
Air Quality Not available.
Flu Activity Not available.
METAR FAGG 162300Z AUTO 06008KT 9000 FEW010/// OVC013/// 16/16 Q1013

More Conditions Fewer Conditions

Pressure 29.92 in
Visibility 5.6 miles
Clouds Few 1000 ft
Overcast 1300 ft
Dew Point 61 °F
Humidity 100%
Rainfall 0.00 in
Snow Depth Not available.
UV 0 out of 12
Pollen Not available.
Air Quality Not available.
Flu Activity Not available.
METAR FAGG 162300Z AUTO 06008KT 9000 FEW010/// OVC013/// 16/16 Q1013

More Conditions Fewer Conditions

10-Day Weather Forecast

Almanac

Astronomy

Sep. 17, 2014 Rise Set
Actual Time 6:27 AM SAST 6:24 PM SAST
Civil Twilight 6:03 AM SAST 6:48 PM SAST
Nautical Twilight 5:34 AM SAST 7:17 PM SAST
Astronomical Twilight 5:05 AM SAST 7:46 PM SAST
Moon 1:57 AM SAST (9/17) 12:36 PM SAST (9/17)
Length of Visible Light 12h 45m
Length of Day
11h 56m
Tomorrow will be 2m 3s longer.
Last Quarter, 41% of the Moon is Illuminated
Sep 16
Last Quarter
Sep 24
New
Oct 1
First Quarter
Oct 8
Full
Oct 15
Last Quarter

Yesterday's Extremes

Country Highs Country Lows

Community

WunderPhotos

Upload Photos

1,753,917 photos uploaded!

Nearby

Snow Depth

Not available.

Earthquake Activity

City Distance Mag. Time & Date
No recent earthquake activity has been reported nearby.
Minimum magnitude displayed is 2.5.

Coastal Water Temperatures

Place Temperature
No Stations Reporting

Nearby Weather Stations